Time;durP1;ratioP1;P1;durP2;ratioP2;P2;SDS_P1;SDS_P2;PMS_P1;PMS_P2;Temp;Humidity;BMP_temperature;BMP_pressure;BME280_temperature;BME280_humidity;BME280_pressure;Samples;Min_cycle;Max_cycle;Signal;HPM_P1;HPM_P2
2022/02/21 00:01:53;;;;;;;;;;;;;;;;;;7396314;19;2096;-47
2022/02/21 00:04:21;;;;;;;;;;;;;;;;;;7396675;19;2192;-46
2022/02/21 00:06:48;;;;;;;;;;;;;;;;;;7397013;19;2276;-46
2022/02/21 00:09:15;;;;;;;;;;;;;;;;;;7396712;19;1950;-45
2022/02/21 00:11:42;;;;;;;;;;;;;;;;;;7397455;19;1953;-47
2022/02/21 00:14:09;;;;;;;;;;;;;;;;;;7396170;19;2087;-44
2022/02/21 00:16:37;;;;;;;;;;;;;;;;;;7395706;19;2164;-50
2022/02/21 00:19:04;;;;;;;;;;;;;;;;;;7396589;19;2073;-49
2022/02/21 00:21:31;;;;;;;;;;;;;;;;;;7394234;19;2129;-45
2022/02/21 00:23:58;;;;;;;;;;;;;;;;;;7396442;19;2182;-46
2022/02/21 00:26:25;;;;;;;;;;;;;;;;;;7395688;19;2198;-46
2022/02/21 00:28:52;;;;;;;;;;;;;;;;;;7394375;19;2088;-47
2022/02/21 00:31:19;;;;;;;;;;;;;;;;;;7393202;19;2086;-46
2022/02/21 00:33:46;;;;;;;;;;;;;;;;;;7395850;19;2414;-48
2022/02/21 00:36:14;;;;;;;;;;;;;;;;;;7396131;19;2307;-49
2022/02/21 00:38:41;;;;;;;;;;;;;;;;;;7395573;19;2257;-47
2022/02/21 00:41:08;;;;;;;;;;;;;;;;;;7396150;19;2144;-44
2022/02/21 00:43:35;;;;;;;;;;;;;;;;;;7395189;19;2200;-48
2022/02/21 00:46:02;;;;;;;;;;;;;;;;;;7400030;19;2118;-47
2022/02/21 00:48:30;;;;;;;;;;;;;;;;;;7393873;19;2289;-49
2022/02/21 00:50:57;;;;;;;;;;;;;;;;;;7393442;19;2234;-48
2022/02/21 00:53:24;;;;;;;;;;;;;;;;;;7394630;19;2080;-47
2022/02/21 00:55:52;;;;;;;;;;;;;;;;;;7395242;19;2209;-49
2022/02/21 00:58:19;;;;;;;;;;;;;;;;;;7395248;19;2578;-45
2022/02/21 01:00:47;;;;;;;;;;;;;;;;;;7395443;19;2101;-46
2022/02/21 01:03:16;;;;;;;;;;;;;;;;;;7394995;19;2293;-53
2022/02/21 01:05:43;;;;;;;;;;;;;;;;;;7394972;19;2163;-44
2022/02/21 01:08:10;;;;;;;;;;;;;;;;;;7394971;19;2075;-44
2022/02/21 01:10:38;;;;;;;;;;;;;;;;;;7393231;19;2017;-45
2022/02/21 01:13:05;;;;;;;;;;;;;;;;;;7394951;19;2249;-50
2022/02/21 01:15:33;;;;;;;;;;;;;;;;;;7394191;19;2094;-45
2022/02/21 01:18:00;;;;;;;;;;;;;;;;;;7394132;19;2024;-46
2022/02/21 01:20:27;;;;;;;;;;;;;;;;;;7394234;19;1987;-49
2022/02/21 01:22:54;;;;;;;;;;;;;;;;;;7392127;19;2192;-43
2022/02/21 01:25:21;;;;;;;;;;;;;;;;;;7393056;19;2109;-45
2022/02/21 01:27:48;;;;;;;;;;;;;;;;;;7393166;19;2151;-45
2022/02/21 01:30:15;;;;;;;;;;;;;;;;;;7393473;19;2162;-46
2022/02/21 01:32:42;;;;;;;;;;;;;;;;;;7394053;19;2069;-51
2022/02/21 01:35:10;;;;;;;;;;;;;;;;;;7393365;19;2078;-44
2022/02/21 01:37:37;;;;;;;;;;;;;;;;;;7392675;19;2082;-47
2022/02/21 01:40:07;;;;;;;;;;;;;;;;;;7393549;19;2113;-45
2022/02/21 01:42:35;;;;;;;;;;;;;;;;;;7393791;19;2251;-51
2022/02/21 01:45:02;;;;;;;;;;;;;;;;;;7395718;19;2194;-45
2022/02/21 01:47:30;;;;;;;;;;;;;;;;;;7393674;19;2145;-46
2022/02/21 01:49:57;;;;;;;;;;;;;;;;;;7391954;19;2310;-58
2022/02/21 01:52:24;;;;;;;;;;;;;;;;;;7392716;19;2385;-45
2022/02/21 01:54:52;;;;;;;;;;;;;;;;;;7393304;19;2149;-45
2022/02/21 01:57:19;;;;;;;;;;;;;;;;;;7392568;19;2118;-43
2022/02/21 01:59:46;;;;;;;;;;;;;;;;;;7393168;19;2426;-45
2022/02/21 02:02:16;;;;;;;;;;;;;;;;;;7394379;19;2347;-46
2022/02/21 02:04:44;;;;;;;;;;;;;;;;;;7392509;19;2064;-48
2022/02/21 02:07:11;;;;;;;;;;;;;;;;;;7392620;19;2277;-41
2022/02/21 02:09:40;;;;;;;;;;;;;;;;;;7391266;19;2104;-43
2022/02/21 02:12:09;;;;;;;;;;;;;;;;;;7392493;19;2425;-44
2022/02/21 02:14:37;;;;;;;;;;;;;;;;;;7392776;19;2217;-42
2022/02/21 02:17:05;;;;;;;;;;;;;;;;;;7392378;19;2190;-43
2022/02/21 02:19:32;;;;;;;;;;;;;;;;;;7392426;19;2293;-45
2022/02/21 02:22:15;;;;;;;;;;;;;;;;;;7389976;19;2088;-43
2022/02/21 02:24:43;;;;;;;;;;;;;;;;;;7392360;19;2215;-46
2022/02/21 02:27:11;;;;;;;;;;;;;;;;;;7392082;19;2180;-49
2022/02/21 02:29:39;;;;;;;;;;;;;;;;;;7392175;19;2189;-48
2022/02/21 02:32:07;;;;;;;;;;;;;;;;;;7391896;19;2102;-45
2022/02/21 02:34:35;;;;;;;;;;;;;;;;;;7391431;19;2217;-47
2022/02/21 02:37:02;;;;;;;;;;;;;;;;;;7391760;19;2193;-45
2022/02/21 02:39:29;;;;;;;;;;;;;;;;;;7390991;19;2122;-44
2022/02/21 02:41:57;;;;;;;;;;;;;;;;;;7391307;19;2122;-46
2022/02/21 02:44:24;;;;;;;;;;;;;;;;;;7392327;19;2136;-52
2022/02/21 02:46:51;;;;;;;;;;;;;;;;;;7391859;19;1988;-49
2022/02/21 02:49:19;;;;;;;;;;;;;;;;;;7391379;19;2170;-47
2022/02/21 02:51:46;;;;;;;;;;;;;;;;;;7389852;19;2112;-45
2022/02/21 02:54:13;;;;;;;;;;;;;;;;;;7391331;19;2166;-49
2022/02/21 02:56:41;;;;;;;;;;;;;;;;;;7389973;19;2112;-49
2022/02/21 02:59:09;;;;;;;;;;;;;;;;;;7390972;19;2168;-46
2022/02/21 03:01:36;;;;;;;;;;;;;;;;;;7391449;19;2165;-45
2022/02/21 03:04:03;;;;;;;;;;;;;;;;;;7390934;19;2301;-51
2022/02/21 03:06:30;;;;;;;;;;;;;;;;;;7390897;19;2139;-45
2022/02/21 03:08:58;;;;;;;;;;;;;;;;;;7390546;19;2124;-62
2022/02/21 03:11:25;;;;;;;;;;;;;;;;;;7388871;19;2299;-50
2022/02/21 03:13:52;;;;;;;;;;;;;;;;;;7390568;19;2193;-54
2022/02/21 03:16:20;;;;;;;;;;;;;;;;;;7391924;19;2081;-46
2022/02/21 03:18:47;;;;;;;;;;;;;;;;;;7398879;19;2174;-43
2022/02/21 03:21:14;;;;;;;;;;;;;;;;;;7398397;19;2064;-44
2022/02/21 03:23:41;;;;;;;;;;;;;;;;;;7396748;19;2071;-55
2022/02/21 03:26:08;;;;;;;;;;;;;;;;;;7397253;19;2080;-48
2022/02/21 03:28:35;;;;;;;;;;;;;;;;;;7398332;19;2116;-46
2022/02/21 03:31:02;;;;;;;;;;;;;;;;;;7396311;19;2086;-45
2022/02/21 03:33:30;;;;;;;;;;;;;;;;;;7397536;19;2203;-43
2022/02/21 03:35:57;;;;;;;;;;;;;;;;;;7397563;19;2128;-48
2022/02/21 03:38:24;;;;;;;;;;;;;;;;;;7398146;19;2132;-45
2022/02/21 03:40:52;;;;;;;;;;;;;;;;;;7397605;19;2140;-54
2022/02/21 03:43:20;;;;;;;;;;;;;;;;;;7397616;19;1913;-45
2022/02/21 03:45:47;;;;;;;;;;;;;;;;;;7401631;19;2110;-49
2022/02/21 03:48:16;;;;;;;;;;;;;;;;;;7397953;19;1976;-50
2022/02/21 03:50:43;;;;;;;;;;;;;;;;;;7396156;19;2056;-52
2022/02/21 03:53:10;;;;;;;;;;;;;;;;;;7397564;19;2136;-47
2022/02/21 03:55:37;;;;;;;;;;;;;;;;;;7397374;19;2131;-45
2022/02/21 03:58:05;;;;;;;;;;;;;;;;;;7397633;19;2133;-47
2022/02/21 04:00:32;;;;;;;;;;;;;;;;;;7395261;19;2224;-43
2022/02/21 04:02:59;;;;;;;;;;;;;;;;;;7396905;19;2257;-49
2022/02/21 04:05:26;;;;;;;;;;;;;;;;;;7396748;19;2198;-44
2022/02/21 04:07:54;;;;;;;;;;;;;;;;;;7395899;19;2154;-49
2022/02/21 04:10:21;;;;;;;;;;;;;;;;;;7395956;19;2248;-41
2022/02/21 04:12:48;;;;;;;;;;;;;;;;;;7396608;19;2203;-44
2022/02/21 04:15:15;;;;;;;;;;;;;;;;;;7397412;19;2200;-45
2022/02/21 04:17:47;;;;;;;;;;;;;;;;;;7396801;19;2275;-46
2022/02/21 04:20:16;;;;;;;;;;;;;;;;;;7395846;19;2185;-67
2022/02/21 04:22:43;;;;;;;;;;;;;;;;;;7393381;19;2029;-44
2022/02/21 04:25:11;;;;;;;;;;;;;;;;;;7394588;19;2254;-45
2022/02/21 04:27:39;;;;;;;;;;;;;;;;;;7394722;19;2194;-70
2022/02/21 04:30:07;;;;;;;;;;;;;;;;;;7395599;19;2188;-46
2022/02/21 04:32:38;;;;;;;;;;;;;;;;;;7393873;19;2116;-45
2022/02/21 04:35:06;;;;;;;;;;;;;;;;;;7396040;19;2237;-41
2022/02/21 04:37:33;;;;;;;;;;;;;;;;;;7395833;19;2176;-56
2022/02/21 04:40:01;;;;;;;;;;;;;;;;;;7396167;19;2214;-59
2022/02/21 04:42:28;;;;;;;;;;;;;;;;;;7395364;19;2026;-50
2022/02/21 04:44:55;;;;;;;;;;;;;;;;;;7397809;19;2053;-70
2022/02/21 04:47:22;;;;;;;;;;;;;;;;;;7395536;19;2093;-57
2022/02/21 04:49:52;;;;;;;;;;;;;;;;;;7395230;19;1917;-68
2022/02/21 04:52:20;;;;;;;;;;;;;;;;;;7392954;19;2051;-52
2022/02/21 04:54:47;;;;;;;;;;;;;;;;;;7395488;19;1739;-66
2022/02/21 04:57:14;;;;;;;;;;;;;;;;;;7394640;19;2152;-50
2022/02/21 04:59:41;;;;;;;;;;;;;;;;;;7394521;19;2079;-47
2022/02/21 05:02:08;;;;;;;;;;;;;;;;;;7395193;19;2151;-47
2022/02/21 05:04:36;;;;;;;;;;;;;;;;;;7394578;19;2150;-66
2022/02/21 05:07:13;;;;;;;;;;;;;;;;;;7394659;19;2119;-55
2022/02/21 05:09:40;;;;;;;;;;;;;;;;;;7394406;19;2230;-44
2022/02/21 05:12:07;;;;;;;;;;;;;;;;;;7392527;19;2067;-49
2022/02/21 05:14:34;;;;;;;;;;;;;;;;;;7392323;19;2353;-51
2022/02/21 05:17:02;;;;;;;;;;;;;;;;;;7394710;19;2118;-48
2022/02/21 05:19:29;;;;;;;;;;;;;;;;;;7394351;19;2169;-47
2022/02/21 05:21:57;;;;;;;;;;;;;;;;;;7393056;19;2201;-45
2022/02/21 05:24:25;;;;;;;;;;;;;;;;;;7394103;19;2168;-46
2022/02/21 05:26:52;;;;;;;;;;;;;;;;;;7392375;19;2125;-46
2022/02/21 05:29:20;;;;;;;;;;;;;;;;;;7394342;19;2085;-49
2022/02/21 05:31:47;;;;;;;;;;;;;;;;;;7392669;19;2206;-44
2022/02/21 05:34:14;;;;;;;;;;;;;;;;;;7393950;19;2096;-49
2022/02/21 05:36:41;;;;;;;;;;;;;;;;;;7393576;19;2207;-45
2022/02/21 05:39:08;;;;;;;;;;;;;;;;;;7391542;19;2192;-64
2022/02/21 05:41:36;;;;;;;;;;;;;;;;;;7393112;19;2181;-66
2022/02/21 05:44:03;;;;;;;;;;;;;;;;;;7394096;19;2186;-47
2022/02/21 05:46:31;;;;;;;;;;;;;;;;;;7392557;19;2320;-53
2022/02/21 05:48:58;;;;;;;;;;;;;;;;;;7393354;19;1998;-65
2022/02/21 05:51:25;;;;;;;;;;;;;;;;;;7391717;19;2240;-43
2022/02/21 05:53:52;;;;;;;;;;;;;;;;;;7392849;19;2236;-48
2022/02/21 05:56:19;;;;;;;;;;;;;;;;;;7393492;19;2189;-48
2022/02/21 05:58:46;;;;;;;;;;;;;;;;;;7392037;19;2117;-56
2022/02/21 06:01:13;;;;;;;;;;;;;;;;;;7392130;19;2156;-48
2022/02/21 06:03:42;;;;;;;;;;;;;;;;;;7392423;19;2213;-44
2022/02/21 06:06:09;;;;;;;;;;;;;;;;;;7392762;19;2096;-43
2022/02/21 06:08:36;;;;;;;;;;;;;;;;;;7392177;19;1946;-45
2022/02/21 06:11:04;;;;;;;;;;;;;;;;;;7392407;19;2104;-50
2022/02/21 06:13:31;;;;;;;;;;;;;;;;;;7392753;19;2250;-44
2022/02/21 06:15:59;;;;;;;;;;;;;;;;;;7391001;19;2101;-50
2022/02/21 06:18:26;;;;;;;;;;;;;;;;;;7392653;19;2245;-58
2022/02/21 06:20:53;;;;;;;;;;;;;;;;;;7391982;19;2059;-48
2022/02/21 06:23:21;;;;;;;;;;;;;;;;;;7391924;19;2222;-54
2022/02/21 06:25:48;;;;;;;;;;;;;;;;;;7391946;19;2316;-49
2022/02/21 06:28:15;;;;;;;;;;;;;;;;;;7393018;19;2256;-44
2022/02/21 06:30:42;;;;;;;;;;;;;;;;;;7392450;19;2081;-46
2022/02/21 06:33:10;;;;;;;;;;;;;;;;;;7391946;19;2213;-47
2022/02/21 06:35:37;;;;;;;;;;;;;;;;;;7391985;19;2073;-58
2022/02/21 06:38:05;;;;;;;;;;;;;;;;;;7389866;19;2205;-68
2022/02/21 06:40:32;;;;;;;;;;;;;;;;;;7392033;19;2287;-59
2022/02/21 06:42:59;;;;;;;;;;;;;;;;;;7389889;19;2272;-55
2022/02/21 06:45:27;;;;;;;;;;;;;;;;;;7394372;19;2350;-44
2022/02/21 06:47:56;;;;;;;;;;;;;;;;;;7391804;19;2319;-47
2022/02/21 06:50:24;;;;;;;;;;;;;;;;;;7388801;19;2172;-45
2022/02/21 06:52:51;;;;;;;;;;;;;;;;;;7389706;19;2294;-44
2022/02/21 06:55:21;;;;;;;;;;;;;;;;;;7390821;19;2198;-51
2022/02/21 06:57:48;;;;;;;;;;;;;;;;;;7391347;19;2198;-50
2022/02/21 07:00:16;;;;;;;;;;;;;;;;;;7391555;19;2146;-65
2022/02/21 07:02:43;;;;;;;;;;;;;;;;;;7391259;19;2184;-65
2022/02/21 07:05:11;;;;;;;;;;;;;;;;;;7391260;19;2228;-45
2022/02/21 07:07:38;;;;;;;;;;;;;;;;;;7390685;19;2184;-49
2022/02/21 07:10:06;;;;;;;;;;;;;;;;;;7390568;19;2150;-43
2022/02/21 07:12:34;;;;;;;;;;;;;;;;;;7388644;19;2318;-52
2022/02/21 07:15:01;;;;;;;;;;;;;;;;;;7390256;19;2112;-49
2022/02/21 07:17:28;;;;;;;;;;;;;;;;;;7390693;19;2241;-56
2022/02/21 07:19:55;;;;;;;;;;;;;;;;;;7389363;19;1984;-52
2022/02/21 07:22:24;;;;;;;;;;;;;;;;;;7389642;19;2221;-43
2022/02/21 07:24:51;;;;;;;;;;;;;;;;;;7390201;19;2104;-48
2022/02/21 07:27:18;;;;;;;;;;;;;;;;;;7390631;19;2098;-45
2022/02/21 07:29:45;;;;;;;;;;;;;;;;;;7390490;19;2132;-45
2022/02/21 07:32:12;;;;;;;;;;;;;;;;;;7388927;19;2282;-45
2022/02/21 07:34:39;;;;;;;;;;;;;;;;;;7393370;19;2138;-45
2022/02/21 07:37:07;;;;;;;;;;;;;;;;;;7390090;19;2256;-62
2022/02/21 07:39:34;;;;;;;;;;;;;;;;;;7388922;19;2178;-47
2022/02/21 07:42:02;;;;;;;;;;;;;;;;;;7389335;19;2111;-44
2022/02/21 07:44:31;;;;;;;;;;;;;;;;;;7389284;19;2191;-49
2022/02/21 07:46:59;;;;;;;;;;;;;;;;;;7389992;19;2175;-51
2022/02/21 07:49:26;;;;;;;;;;;;;;;;;;7389660;19;2077;-50
2022/02/21 07:51:53;;;;;;;;;;;;;;;;;;7389217;19;2223;-46
2022/02/21 07:54:20;;;;;;;;;;;;;;;;;;7389894;19;2030;-62
2022/02/21 07:57:08;;;;;;;;;;;;;;;;;;7389678;19;2186;-65
2022/02/21 07:59:35;;;;;;;;;;;;;;;;;;7389134;19;1397;-60
2022/02/21 08:02:03;;;;;;;;;;;;;;;;;;7390080;19;2218;-44
2022/02/21 08:04:30;;;;;;;;;;;;;;;;;;7397544;19;2200;-49
2022/02/21 08:06:57;;;;;;;;;;;;;;;;;;7397385;19;2216;-44
2022/02/21 08:09:24;;;;;;;;;;;;;;;;;;7396548;19;2217;-46
2022/02/21 08:11:52;;;;;;;;;;;;;;;;;;7395388;19;2238;-46
2022/02/21 08:14:22;;;;;;;;;;;;;;;;;;7397373;19;2205;-45
2022/02/21 08:16:49;;;;;;;;;;;;;;;;;;7396598;19;2277;-44
2022/02/21 08:19:16;;;;;;;;;;;;;;;;;;7394703;19;2066;-61
2022/02/21 08:21:44;;;;;;;;;;;;;;;;;;7394884;19;2192;-46
2022/02/21 08:24:11;;;;;;;;;;;;;;;;;;7396193;19;2116;-47
2022/02/21 08:26:39;;;;;;;;;;;;;;;;;;7395965;19;2020;-48
2022/02/21 08:29:06;;;;;;;;;;;;;;;;;;7396133;19;2113;-43
2022/02/21 08:31:33;;;;;;;;;;;;;;;;;;7394979;19;2163;-55
2022/02/21 08:34:00;;;;;;;;;;;;;;;;;;7395464;19;2244;-47
2022/02/21 08:36:27;;;;;;;;;;;;;;;;;;7395126;19;2203;-45
2022/02/21 08:38:55;;;;;;;;;;;;;;;;;;7395991;19;2220;-45
2022/02/21 08:41:22;;;;;;;;;;;;;;;;;;7391264;19;2801;-44
2022/02/21 08:43:49;;;;;;;;;;;;;;;;;;7396477;19;2251;-53
2022/02/21 08:46:16;;;;;;;;;;;;;;;;;;7395687;19;2362;-47
2022/02/21 08:49:04;;;;;;;;;;;;;;;;;;7395206;19;2136;-50
2022/02/21 08:51:32;;;;;;;;;;;;;;;;;;7394935;19;2230;-47
2022/02/21 08:53:59;;;;;;;;;;;;;;;;;;7394981;19;2239;-51
2022/02/21 08:56:30;;;;;;;;;;;;;;;;;;7394921;19;2153;-47
2022/02/21 08:58:58;;;;;;;;;;;;;;;;;;7394257;19;2008;-48
2022/02/21 09:01:25;;;;;;;;;;;;;;;;;;7393680;19;2207;-44
2022/02/21 09:03:52;;;;;;;;;;;;;;;;;;7394431;19;2081;-45
2022/02/21 09:06:19;;;;;;;;;;;;;;;;;;7395284;19;2211;-53
2022/02/21 09:08:47;;;;;;;;;;;;;;;;;;7395579;19;2101;-67
2022/02/21 09:11:14;;;;;;;;;;;;;;;;;;7394236;19;2083;-61
2022/02/21 09:13:41;;;;;;;;;;;;;;;;;;7389539;19;2190;-44
2022/02/21 09:16:08;;;;;;;;;;;;;;;;;;7393862;19;2166;-47
2022/02/21 09:18:35;;;;;;;;;;;;;;;;;;7394289;19;2021;-52
2022/02/21 09:21:03;;;;;;;;;;;;;;;;;;7393572;19;2168;-61
2022/02/21 09:23:30;;;;;;;;;;;;;;;;;;7393803;19;1985;-55
2022/02/21 09:25:57;;;;;;;;;;;;;;;;;;7393340;19;2085;-54
2022/02/21 09:28:24;;;;;;;;;;;;;;;;;;7393811;19;2129;-51
2022/02/21 09:30:55;;;;;;;;;;;;;;;;;;7393378;19;2079;-54
2022/02/21 09:33:23;;;;;;;;;;;;;;;;;;7389929;19;2265;-44
2022/02/21 09:35:52;;;;;;;;;;;;;;;;;;7393361;19;2094;-48
2022/02/21 09:38:20;;;;;;;;;;;;;;;;;;7393844;19;2197;-47
2022/02/21 09:40:50;;;;;;;;;;;;;;;;;;7392689;19;2008;-47
2022/02/21 09:43:26;;;;;;;;;;;;;;;;;;7393940;19;2240;-51
2022/02/21 09:45:56;;;;;;;;;;;;;;;;;;7396914;19;2092;-51
2022/02/21 09:48:26;;;;;;;;;;;;;;;;;;7390858;19;2224;-51
2022/02/21 09:50:58;;;;;;;;;;;;;;;;;;7392396;19;2120;-46
2022/02/21 09:53:28;;;;;;;;;;;;;;;;;;7391246;19;2170;-48
2022/02/21 09:55:55;;;;;;;;;;;;;;;;;;7390639;19;2154;-54
2022/02/21 09:58:23;;;;;;;;;;;;;;;;;;7392479;19;2241;-47
2022/02/21 10:00:50;;;;;;;;;;;;;;;;;;7392746;19;2092;-47
2022/02/21 10:06:22;;;;;;;;;;;;;;;;;;7383365;19;1762;-56
2022/02/21 10:08:50;;;;;;;;;;;;;;;;;;7390070;19;1215;-58
2022/02/21 10:11:32;;;;;;;;;;;;;;;;;;7395250;19;1013;-60
2022/02/21 10:14:01;;;;;;;;;;;;;;;;;;7392756;19;849;-56
2022/02/21 10:17:02;;;;;;;;;;;;;;;;;;7392031;19;934;-56
2022/02/21 10:19:41;;;;;;;;;;;;;;;;;;7390454;19;1223;-53
2022/02/21 10:22:13;;;;;;;;;;;;;;;;;;7392359;19;879;-54
2022/02/21 10:24:42;;;;;;;;;;;;;;;;;;7395580;19;1082;-56
2022/02/21 10:27:12;;;;;;;;;;;;;;;;;;7391228;19;922;-58
2022/02/21 10:29:51;;;;;;;;;;;;;;;;;;7391664;19;862;-57
2022/02/21 10:32:21;;;;;;;;;;;;;;;;;;7391001;19;1838;-54
2022/02/21 10:34:49;;;;;;;;;;;;;;;;;;7391415;19;879;-58
2022/02/21 10:37:21;;;;;;;;;;;;;;;;;;7391818;19;939;-56
2022/02/21 10:39:49;;;;;;;;;;;;;;;;;;7391237;19;904;-58
2022/02/21 10:42:26;;;;;;;;;;;;;;;;;;7394446;19;934;-56
2022/02/21 10:44:53;;;;;;;;;;;;;;;;;;7390943;19;915;-57
2022/02/21 10:47:21;;;;;;;;;;;;;;;;;;7392133;19;946;-57
2022/02/21 10:49:52;;;;;;;;;;;;;;;;;;7390678;19;926;-60
2022/02/21 10:52:21;;;;;;;;;;;;;;;;;;7390764;19;1838;-56
2022/02/21 10:54:49;;;;;;;;;;;;;;;;;;7391453;19;957;-55
2022/02/21 10:57:18;;;;;;;;;;;;;;;;;;7391129;19;965;-56
2022/02/21 10:59:45;;;;;;;;;;;;;;;;;;7392576;19;1111;-55
2022/02/21 11:02:15;;;;;;;;;;;;;;;;;;7391093;19;974;-57
2022/02/21 11:04:43;;;;;;;;;;;;;;;;;;7391014;19;1021;-54
2022/02/21 11:07:11;;;;;;;;;;;;;;;;;;7391123;19;942;-55
2022/02/21 11:09:39;;;;;;;;;;;;;;;;;;7390877;19;922;-50
2022/02/21 11:12:07;;;;;;;;;;;;;;;;;;7390803;19;1853;-61
2022/02/21 11:14:35;;;;;;;;;;;;;;;;;;7390435;19;914;-56
2022/02/21 11:17:03;;;;;;;;;;;;;;;;;;7390565;19;931;-57
2022/02/21 11:19:30;;;;;;;;;;;;;;;;;;7390958;19;963;-61
2022/02/21 11:21:58;;;;;;;;;;;;;;;;;;7390915;19;896;-54
2022/02/21 11:24:29;;;;;;;;;;;;;;;;;;7393238;19;946;-54
2022/02/21 11:27:15;;;;;;;;;;;;;;;;;;7389881;19;986;-54
2022/02/21 11:29:45;;;;;;;;;;;;;;;;;;7391276;19;958;-50
2022/02/21 11:32:19;;;;;;;;;;;;;;;;;;7385427;19;1850;-65
2022/02/21 11:34:47;;;;;;;;;;;;;;;;;;7392677;19;1480;-60
2022/02/21 11:37:25;;;;;;;;;;;;;;;;;;7393626;19;1013;-51
2022/02/21 11:39:57;;;;;;;;;;;;;;;;;;7401372;19;1133;-54
2022/02/21 11:42:44;;;;;;;;;;;;;;;;;;7397958;19;1006;-59
2022/02/21 11:45:25;;;;;;;;;;;;;;;;;;7397628;19;870;-58
2022/02/21 11:47:57;;;;;;;;;;;;;;;;;;7398241;19;925;-57
2022/02/21 11:50:29;;;;;;;;;;;;;;;;;;7398016;19;1099;-60
2022/02/21 11:52:58;;;;;;;;;;;;;;;;;;7396776;19;1850;-60
2022/02/21 11:55:38;;;;;;;;;;;;;;;;;;7397487;19;930;-57
2022/02/21 11:58:12;;;;;;;;;;;;;;;;;;7397960;19;1006;-58
2022/02/21 12:00:40;;;;;;;;;;;;;;;;;;7397483;19;878;-57
2022/02/21 12:03:12;;;;;;;;;;;;;;;;;;7397061;19;919;-50
2022/02/21 12:05:40;;;;;;;;;;;;;;;;;;7396933;19;1107;-60
2022/02/21 12:08:25;;;;;;;;;;;;;;;;;;7397311;19;881;-59
2022/02/21 12:11:04;;;;;;;;;;;;;;;;;;7396980;19;903;-63
2022/02/21 12:13:35;;;;;;;;;;;;;;;;;;7393811;19;1870;-64
2022/02/21 12:16:04;;;;;;;;;;;;;;;;;;7396589;19;953;-61
2022/02/21 12:18:39;;;;;;;;;;;;;;;;;;7395487;19;835;-55
2022/02/21 12:21:06;;;;;;;;;;;;;;;;;;7396814;19;854;-51
2022/02/21 12:23:33;;;;;;;;;;;;;;;;;;7396729;19;871;-58
2022/02/21 12:26:00;;;;;;;;;;;;;;;;;;7397072;19;875;-55
2022/02/21 12:28:29;;;;;;;;;;;;;;;;;;7399175;19;1185;-58
2022/02/21 12:30:57;;;;;;;;;;;;;;;;;;7396908;19;929;-54
2022/02/21 12:33:25;;;;;;;;;;;;;;;;;;7394588;19;1845;-55
2022/02/21 12:35:54;;;;;;;;;;;;;;;;;;7396212;19;915;-58
2022/02/21 12:38:22;;;;;;;;;;;;;;;;;;7395965;19;1022;-60
2022/02/21 12:41:02;;;;;;;;;;;;;;;;;;7395630;19;961;-62
2022/02/21 12:43:46;;;;;;;;;;;;;;;;;;7395830;19;883;-51
2022/02/21 12:46:15;;;;;;;;;;;;;;;;;;7394941;19;938;-53
2022/02/21 12:48:43;;;;;;;;;;;;;;;;;;7394653;19;957;-55
2022/02/21 12:51:16;;;;;;;;;;;;;;;;;;7393573;19;1017;-48
2022/02/21 12:53:56;;;;;;;;;;;;;;;;;;7394261;19;1849;-52
2022/02/21 12:56:24;;;;;;;;;;;;;;;;;;7395660;19;1077;-56
2022/02/21 12:58:51;;;;;;;;;;;;;;;;;;7395174;19;975;-50
2022/02/21 13:01:20;;;;;;;;;;;;;;;;;;7396117;19;1125;-60
2022/02/21 13:03:58;;;;;;;;;;;;;;;;;;7395874;19;1122;-55
2022/02/21 13:06:27;;;;;;;;;;;;;;;;;;7392940;19;1301;-48
2022/02/21 13:08:54;;;;;;;;;;;;;;;;;;7395644;19;928;-59
2022/02/21 13:11:22;;;;;;;;;;;;;;;;;;7397472;19;990;-59
2022/02/21 13:14:10;;;;;;;;;;;;;;;;;;7393048;19;1832;-60
2022/02/21 13:16:51;;;;;;;;;;;;;;;;;;7394539;19;854;-53
2022/02/21 13:19:27;;;;;;;;;;;;;;;;;;7393957;19;1021;-55
2022/02/21 13:21:56;;;;;;;;;;;;;;;;;;7394914;19;950;-56
2022/02/21 13:24:23;;;;;;;;;;;;;;;;;;7394534;19;877;-63
2022/02/21 13:26:55;;;;;;;;;;;;;;;;;;7397022;19;1162;-53
2022/02/21 13:29:26;;;;;;;;;;;;;;;;;;7398803;19;1165;-52
2022/02/21 13:31:54;;;;;;;;;;;;;;;;;;7394458;19;1276;-57
2022/02/21 13:34:40;;;;;;;;;;;;;;;;;;7395726;19;1859;-51
2022/02/21 13:37:12;;;;;;;;;;;;;;;;;;7394157;19;879;-54
2022/02/21 13:39:59;;;;;;;;;;;;;;;;;;7393962;19;913;-53
2022/02/21 13:42:29;;;;;;;;;;;;;;;;;;7394918;19;1901;-48
2022/02/21 13:45:15;;;;;;;;;;;;;;;;;;7394964;19;937;-50
2022/02/21 13:47:44;;;;;;;;;;;;;;;;;;7393673;19;978;-59
2022/02/21 13:50:30;;;;;;;;;;;;;;;;;;7393567;19;930;-50
2022/02/21 13:52:57;;;;;;;;;;;;;;;;;;7393815;19;1850;-50
2022/02/21 13:55:25;;;;;;;;;;;;;;;;;;7393264;19;962;-74
2022/02/21 13:57:58;;;;;;;;;;;;;;;;;;7393484;19;953;-51
2022/02/21 14:00:44;;;;;;;;;;;;;;;;;;7391353;19;956;-61
2022/02/21 14:03:12;;;;;;;;;;;;;;;;;;7392902;19;957;-55
2022/02/21 14:05:58;;;;;;;;;;;;;;;;;;7391575;19;1187;-51
2022/02/21 14:08:36;;;;;;;;;;;;;;;;;;7388214;19;942;-50
2022/02/21 14:11:35;;;;;;;;;;;;;;;;;;7388347;19;870;-54
2022/02/21 14:14:08;;;;;;;;;;;;;;;;;;7386258;19;1846;-51
2022/02/21 14:16:35;;;;;;;;;;;;;;;;;;7388637;19;957;-51
2022/02/21 14:19:03;;;;;;;;;;;;;;;;;;7389061;19;914;-51
2022/02/21 14:21:30;;;;;;;;;;;;;;;;;;7388810;19;1017;-51
2022/02/21 14:23:57;;;;;;;;;;;;;;;;;;7392004;19;954;-58
2022/02/21 14:26:24;;;;;;;;;;;;;;;;;;7392166;19;974;-54
2022/02/21 14:28:52;;;;;;;;;;;;;;;;;;7396238;19;1102;-50
2022/02/21 14:31:19;;;;;;;;;;;;;;;;;;7390980;19;908;-52
2022/02/21 14:33:47;;;;;;;;;;;;;;;;;;7390870;19;1841;-49
2022/02/21 14:36:16;;;;;;;;;;;;;;;;;;7391592;19;942;-55
2022/02/21 14:38:44;;;;;;;;;;;;;;;;;;7392434;19;933;-60
2022/02/21 14:41:11;;;;;;;;;;;;;;;;;;7391789;19;860;-58
2022/02/21 14:43:38;;;;;;;;;;;;;;;;;;7390402;19;916;-53
2022/02/21 14:46:07;;;;;;;;;;;;;;;;;;7391724;19;938;-56
2022/02/21 14:48:35;;;;;;;;;;;;;;;;;;7391336;19;856;-53
2022/02/21 14:51:22;;;;;;;;;;;;;;;;;;7391580;19;1492;-54
2022/02/21 14:53:55;;;;;;;;;;;;;;;;;;7390238;19;1850;-51
2022/02/21 14:56:25;;;;;;;;;;;;;;;;;;7391226;19;1042;-53
2022/02/21 14:58:54;;;;;;;;;;;;;;;;;;7391121;19;986;-53
2022/02/21 15:01:21;;;;;;;;;;;;;;;;;;7391577;19;902;-58
2022/02/21 15:03:48;;;;;;;;;;;;;;;;;;7391273;19;1009;-59
2022/02/21 15:06:16;;;;;;;;;;;;;;;;;;7389772;19;1303;-54
2022/02/21 15:08:45;;;;;;;;;;;;;;;;;;7391207;19;927;-48
2022/02/21 15:11:13;;;;;;;;;;;;;;;;;;7390891;19;863;-54
2022/02/21 15:13:40;;;;;;;;;;;;;;;;;;7388463;19;1830;-49
2022/02/21 15:16:10;;;;;;;;;;;;;;;;;;7391082;19;942;-53
2022/02/21 15:18:38;;;;;;;;;;;;;;;;;;7390921;19;958;-50
2022/02/21 15:21:05;;;;;;;;;;;;;;;;;;7390486;19;954;-49
2022/02/21 15:23:32;;;;;;;;;;;;;;;;;;7391198;19;934;-56
2022/02/21 15:25:59;;;;;;;;;;;;;;;;;;7391175;19;892;-55
2022/02/21 15:28:27;;;;;;;;;;;;;;;;;;7393978;19;1098;-52
2022/02/21 15:30:54;;;;;;;;;;;;;;;;;;7390641;19;940;-52
2022/02/21 15:33:21;;;;;;;;;;;;;;;;;;7390333;19;1860;-50
2022/02/21 15:35:49;;;;;;;;;;;;;;;;;;7391071;19;1343;-53
2022/02/21 15:38:16;;;;;;;;;;;;;;;;;;7389030;19;1307;-51
2022/02/21 15:40:44;;;;;;;;;;;;;;;;;;7390214;19;878;-62
2022/02/21 15:43:11;;;;;;;;;;;;;;;;;;7390752;19;922;-51
2022/02/21 15:45:40;;;;;;;;;;;;;;;;;;7390882;19;949;-54
2022/02/21 15:48:07;;;;;;;;;;;;;;;;;;7389649;19;950;-61
2022/02/21 15:50:36;;;;;;;;;;;;;;;;;;7389872;19;923;-58
2022/02/21 15:53:03;;;;;;;;;;;;;;;;;;7390082;19;1852;-56
2022/02/21 15:55:33;;;;;;;;;;;;;;;;;;7390506;19;1001;-56
2022/02/21 15:58:00;;;;;;;;;;;;;;;;;;7390950;19;891;-60
2022/02/21 16:00:28;;;;;;;;;;;;;;;;;;7390648;19;962;-54
2022/02/21 16:02:55;;;;;;;;;;;;;;;;;;7390001;19;988;-54
2022/02/21 16:05:22;;;;;;;;;;;;;;;;;;7388895;19;1234;-54
2022/02/21 16:07:49;;;;;;;;;;;;;;;;;;7389163;19;922;-55
2022/02/21 16:10:17;;;;;;;;;;;;;;;;;;7389711;19;949;-61
2022/02/21 16:12:44;;;;;;;;;;;;;;;;;;7389437;19;950;-53
2022/02/21 16:15:12;;;;;;;;;;;;;;;;;;7386302;19;1854;-54
2022/02/21 16:17:39;;;;;;;;;;;;;;;;;;7389421;19;946;-54
2022/02/21 16:20:06;;;;;;;;;;;;;;;;;;7388893;19;937;-52
2022/02/21 16:22:33;;;;;;;;;;;;;;;;;;7389675;19;930;-58
2022/02/21 16:25:01;;;;;;;;;;;;;;;;;;7396301;19;907;-51
2022/02/21 16:27:28;;;;;;;;;;;;;;;;;;7397370;19;1292;-60
2022/02/21 16:29:58;;;;;;;;;;;;;;;;;;7396281;19;934;-53
2022/02/21 16:32:25;;;;;;;;;;;;;;;;;;7394898;19;922;-59
2022/02/21 16:34:52;;;;;;;;;;;;;;;;;;7393908;19;1854;-59
2022/02/21 16:37:19;;;;;;;;;;;;;;;;;;7396236;19;849;-58
2022/02/21 16:39:47;;;;;;;;;;;;;;;;;;7396519;19;938;-64
2022/02/21 16:42:14;;;;;;;;;;;;;;;;;;7395930;19;958;-52
2022/02/21 16:44:43;;;;;;;;;;;;;;;;;;7396156;19;949;-50
2022/02/21 16:47:12;;;;;;;;;;;;;;;;;;7394412;19;1162;-50
2022/02/21 16:49:40;;;;;;;;;;;;;;;;;;7395646;19;955;-49
2022/02/21 16:52:07;;;;;;;;;;;;;;;;;;7395629;19;946;-60
2022/02/21 16:54:34;;;;;;;;;;;;;;;;;;7394127;19;1865;-57
2022/02/21 16:57:02;;;;;;;;;;;;;;;;;;7395863;19;1057;-50
2022/02/21 16:59:29;;;;;;;;;;;;;;;;;;7395766;19;1049;-59
2022/02/21 17:01:56;;;;;;;;;;;;;;;;;;7395111;19;866;-52
2022/02/21 17:04:24;;;;;;;;;;;;;;;;;;7395542;19;879;-55
2022/02/21 17:06:51;;;;;;;;;;;;;;;;;;7392722;19;1188;-57
2022/02/21 17:09:18;;;;;;;;;;;;;;;;;;7394878;19;891;-47
2022/02/21 17:11:45;;;;;;;;;;;;;;;;;;7394748;19;946;-55
2022/02/21 17:14:12;;;;;;;;;;;;;;;;;;7393908;19;1864;-49
2022/02/21 17:16:40;;;;;;;;;;;;;;;;;;7393994;19;903;-58
2022/02/21 17:19:07;;;;;;;;;;;;;;;;;;7394802;19;962;-52
2022/02/21 17:21:34;;;;;;;;;;;;;;;;;;7394676;19;906;-47
2022/02/21 17:24:01;;;;;;;;;;;;;;;;;;7394824;19;1034;-52